Time;durP1;ratioP1;P1;durP2;ratioP2;P2;SDS_P1;SDS_P2;PMS_P1;PMS_P2;Temp;Humidity;BMP_temperature;BMP_pressure;BME280_temperature;BME280_humidity;BME280_pressure;Samples;Min_cycle;Max_cycle;Signal;HPM_P1;HPM_P2
2022/07/15 00:00:21;;;;;;;;;;;17.90;92.90;;;;;;4987844;28;20299;-77
2022/07/15 00:02:49;;;;;;;;;;;17.70;93.20;;;;;;4988090;28;19932;-76
2022/07/15 00:05:17;;;;;;;;;;;17.60;93.30;;;;;;4987700;28;19933;-76
2022/07/15 00:07:46;;;;;;;;;;;17.50;93.50;;;;;;5005138;28;19932;-77
2022/07/15 00:10:14;;;;;;;;;;;17.50;93.60;;;;;;4986831;28;19929;-77
2022/07/15 00:12:43;;;;;;;;;;;17.40;93.40;;;;;;4988347;28;19935;-77
2022/07/15 00:15:13;;;;;;;;;;;17.40;93.70;;;;;;4987590;28;19930;-78
2022/07/15 00:17:42;;;;;;;;;;;17.30;93.70;;;;;;4987677;28;19952;-78
2022/07/15 00:20:11;;;;;;;;;;;17.30;93.80;;;;;;4989317;28;19926;-77
2022/07/15 00:22:40;;;;;;;;;;;17.20;94.00;;;;;;4995491;28;19952;-77
2022/07/15 00:25:09;;;;;;;;;;;17.20;94.00;;;;;;4986827;28;20226;-77
2022/07/15 00:27:50;;;;;;;;;;;17.10;94.00;;;;;;4658947;28;9999619;-77
2022/07/15 00:30:19;;;;;;;;;;;17.10;94.10;;;;;;5004241;28;19929;-78
2022/07/15 00:32:47;;;;;;;;;;;17.10;94.00;;;;;;5017262;28;19929;-76
2022/07/15 00:35:16;;;;;;;;;;;17.00;94.10;;;;;;4987539;28;19932;-76
2022/07/15 00:37:46;;;;;;;;;;;17.00;94.00;;;;;;5003480;28;19946;-77
2022/07/15 00:40:14;;;;;;;;;;;16.90;94.50;;;;;;5004422;28;19929;-77
2022/07/15 00:42:45;;;;;;;;;;;16.80;94.60;;;;;;4954827;28;19930;-77
2022/07/15 00:45:14;;;;;;;;;;;16.80;94.60;;;;;;4987616;28;20570;-75
2022/07/15 00:48:02;;;;;;;;;;;16.70;94.50;;;;;;5004251;28;19936;-76
2022/07/15 00:50:35;;;;;;;;;;;16.70;94.90;;;;;;5003669;28;20446;-77
2022/07/15 00:53:10;;;;;;;;;;;16.60;94.70;;;;;;4990292;28;19929;-77
2022/07/15 00:55:43;;;;;;;;;;;16.60;94.90;;;;;;4987001;28;19933;-77
2022/07/15 00:58:16;;;;;;;;;;;16.50;95.30;;;;;;5003381;28;19926;-79
2022/07/15 01:00:44;;;;;;;;;;;16.50;95.20;;;;;;4986502;28;19957;-76
2022/07/15 01:03:14;;;;;;;;;;;16.30;95.10;;;;;;4995936;28;19925;-76
2022/07/15 01:05:44;;;;;;;;;;;16.50;95.10;;;;;;4989351;28;19937;-76
2022/07/15 01:08:12;;;;;;;;;;;16.50;95.00;;;;;;4969436;28;19936;-76
2022/07/15 01:10:41;;;;;;;;;;;16.50;94.80;;;;;;4988787;28;19926;-76
2022/07/15 01:13:09;;;;;;;;;;;16.50;94.80;;;;;;4971532;28;19933;-76
2022/07/15 01:15:37;;;;;;;;;;;16.60;94.70;;;;;;4999376;28;19926;-77
2022/07/15 01:18:07;;;;;;;;;;;16.60;94.50;;;;;;4968895;28;19932;-76
2022/07/15 01:20:40;;;;;;;;;;;16.60;94.70;;;;;;5001665;28;20378;-78
2022/07/15 01:23:09;;;;;;;;;;;16.50;94.70;;;;;;4968686;28;20579;-77
2022/07/15 01:25:41;;;;;;;;;;;16.50;94.80;;;;;;4986129;28;20010;-78
2022/07/15 01:28:12;;;;;;;;;;;16.40;95.30;;;;;;4987162;28;19932;-77
2022/07/15 01:30:40;;;;;;;;;;;16.40;94.90;;;;;;5004302;28;19936;-77
2022/07/15 01:33:15;;;;;;;;;;;16.30;94.70;;;;;;4969692;28;19942;-76
2022/07/15 01:35:45;;;;;;;;;;;16.30;94.00;;;;;;5002072;28;19930;-76
2022/07/15 01:38:13;;;;;;;;;;;16.30;93.30;;;;;;4969568;28;20654;-77
2022/07/15 01:40:42;;;;;;;;;;;16.30;92.70;;;;;;5002993;28;19930;-77
2022/07/15 01:43:11;;;;;;;;;;;16.30;92.60;;;;;;4987117;28;19932;-76
2022/07/15 01:45:43;;;;;;;;;;;16.30;92.70;;;;;;5002275;28;19949;-76
2022/07/15 01:51:20;;;;;;;;;;;16.30;91.70;;;;;;5004893;28;19926;-76
2022/07/15 01:53:50;;;;;;;;;;;16.30;92.00;;;;;;4990437;28;19936;-77
2022/07/15 01:56:18;;;;;;;;;;;16.30;92.20;;;;;;4953073;28;19933;-77
2022/07/15 01:58:46;;;;;;;;;;;16.30;92.40;;;;;;4987116;28;19926;-76
2022/07/15 02:01:14;;;;;;;;;;;16.30;92.70;;;;;;5005272;28;20060;-76
2022/07/15 02:03:44;;;;;;;;;;;16.20;92.80;;;;;;5003595;28;19932;-76
2022/07/15 02:06:13;;;;;;;;;;;16.40;92.80;;;;;;5004789;28;19936;-76
2022/07/15 02:08:42;;;;;;;;;;;16.20;93.10;;;;;;5003246;28;19926;-76
2022/07/15 02:11:15;;;;;;;;;;;16.10;93.20;;;;;;5002301;28;19930;-76
2022/07/15 02:13:48;;;;;;;;;;;16.00;93.20;;;;;;5001037;28;19926;-76
2022/07/15 02:16:18;;;;;;;;;;;15.90;93.00;;;;;;5004206;28;19932;-76
2022/07/15 02:18:47;;;;;;;;;;;15.90;93.00;;;;;;5004155;28;19929;-76
2022/07/15 02:21:16;;;;;;;;;;;15.90;92.60;;;;;;4984228;28;19937;-77
2022/07/15 02:23:44;;;;;;;;;;;15.90;92.70;;;;;;4998792;28;20303;-77
2022/07/15 02:26:13;;;;;;;;;;;15.90;92.00;;;;;;5005686;28;19926;-76
2022/07/15 02:28:42;;;;;;;;;;;15.90;91.70;;;;;;4972940;28;19948;-76
2022/07/15 02:31:12;;;;;;;;;;;15.90;91.90;;;;;;4988536;28;19947;-77
2022/07/15 02:33:41;;;;;;;;;;;15.90;91.90;;;;;;5005247;28;19945;-77
2022/07/15 02:36:12;;;;;;;;;;;16.00;92.00;;;;;;4983393;28;19933;-76
2022/07/15 02:38:41;;;;;;;;;;;15.90;92.10;;;;;;4990958;28;20437;-77
2022/07/15 02:41:11;;;;;;;;;;;16.20;92.20;;;;;;4990941;28;19930;-77
2022/07/15 02:43:42;;;;;;;;;;;16.20;92.40;;;;;;4975389;28;19930;-78
2022/07/15 02:46:11;;;;;;;;;;;15.90;92.30;;;;;;4991619;28;19936;-77
2022/07/15 02:48:40;;;;;;;;;;;15.80;92.50;;;;;;4986643;28;19945;-77
2022/07/15 02:51:08;;;;;;;;;;;15.70;92.50;;;;;;5001862;28;19926;-77
2022/07/15 02:53:36;;;;;;;;;;;15.70;92.60;;;;;;5008286;28;19945;-76
2022/07/15 02:56:09;;;;;;;;;;;15.60;92.50;;;;;;4991934;28;19930;-77
2022/07/15 02:58:38;;;;;;;;;;;15.60;92.80;;;;;;5008123;28;19932;-75
2022/07/15 03:01:09;;;;;;;;;;;15.50;92.90;;;;;;4975789;28;19926;-76
2022/07/15 03:03:39;;;;;;;;;;;15.50;92.50;;;;;;5007978;28;20385;-76
2022/07/15 03:06:11;;;;;;;;;;;15.50;92.40;;;;;;4975400;28;19930;-77
2022/07/15 03:08:39;;;;;;;;;;;15.40;92.00;;;;;;5008946;28;19926;-76
2022/07/15 03:11:07;;;;;;;;;;;15.50;91.90;;;;;;5007513;28;19932;-77
2022/07/15 03:13:35;;;;;;;;;;;15.50;91.80;;;;;;5008871;28;19932;-76
2022/07/15 03:16:05;;;;;;;;;;;15.50;91.70;;;;;;4991425;28;19948;-76
2022/07/15 03:18:37;;;;;;;;;;;15.50;91.70;;;;;;4991925;28;19933;-77
2022/07/15 03:21:05;;;;;;;;;;;15.50;91.50;;;;;;4990871;28;19926;-77
2022/07/15 03:23:34;;;;;;;;;;;15.50;91.60;;;;;;5007335;28;19936;-78
2022/07/15 03:26:03;;;;;;;;;;;15.50;91.50;;;;;;5007118;28;19932;-77
2022/07/15 03:28:31;;;;;;;;;;;15.50;91.60;;;;;;4991756;28;20402;-78
2022/07/15 03:30:59;;;;;;;;;;;15.50;91.70;;;;;;5007159;28;19937;-76
2022/07/15 03:33:28;;;;;;;;;;;15.40;91.60;;;;;;4991679;28;19933;-76
2022/07/15 03:35:57;;;;;;;;;;;15.50;91.80;;;;;;5006738;28;19945;-77
2022/07/15 03:38:30;;;;;;;;;;;15.50;91.90;;;;;;4990781;28;19926;-76
2022/07/15 03:40:58;;;;;;;;;;;15.50;92.00;;;;;;4974946;28;19936;-77
2022/07/15 03:43:29;;;;;;;;;;;15.40;92.30;;;;;;4991756;28;19926;-77
2022/07/15 03:45:58;;;;;;;;;;;15.40;92.10;;;;;;5006675;28;19933;-78
2022/07/15 03:48:30;;;;;;;;;;;15.40;92.30;;;;;;4992864;28;19926;-79
2022/07/15 03:50:59;;;;;;;;;;;15.30;92.30;;;;;;4990506;28;19932;-77
2022/07/15 03:53:28;;;;;;;;;;;15.30;92.40;;;;;;4990123;28;20429;-76
2022/07/15 03:55:56;;;;;;;;;;;15.20;92.40;;;;;;5007173;28;20157;-76
2022/07/15 03:58:23;;;;;;;;;;;15.20;92.40;;;;;;4990351;28;19926;-80
2022/07/15 04:00:51;;;;;;;;;;;15.20;92.50;;;;;;4987294;28;19953;-77
2022/07/15 04:03:21;;;;;;;;;;;15.10;92.60;;;;;;4986375;28;19941;-76
2022/07/15 04:05:51;;;;;;;;;;;15.10;92.50;;;;;;4993674;28;19944;-77
2022/07/15 04:08:19;;;;;;;;;;;15.00;92.80;;;;;;5013006;28;19964;-77
2022/07/15 04:10:47;;;;;;;;;;;15.00;92.60;;;;;;5007082;28;19925;-76
2022/07/15 04:13:18;;;;;;;;;;;15.00;92.70;;;;;;5006443;28;19926;-78
2022/07/15 04:15:47;;;;;;;;;;;15.00;92.80;;;;;;4990621;28;19926;-76
2022/07/15 04:18:15;;;;;;;;;;;15.00;92.90;;;;;;5005754;28;19925;-76
2022/07/15 04:20:43;;;;;;;;;;;14.90;93.00;;;;;;4990233;28;19932;-77
2022/07/15 04:23:11;;;;;;;;;;;14.90;92.90;;;;;;4990486;28;19935;-76
2022/07/15 04:25:40;;;;;;;;;;;14.90;93.00;;;;;;5006360;28;19925;-76
2022/07/15 04:28:09;;;;;;;;;;;15.10;93.10;;;;;;4999556;28;19930;-77
2022/07/15 04:30:38;;;;;;;;;;;14.80;93.20;;;;;;5003691;28;19932;-76
2022/07/15 04:33:06;;;;;;;;;;;14.80;93.20;;;;;;4989861;28;20315;-77
2022/07/15 04:35:38;;;;;;;;;;;14.80;93.30;;;;;;4988430;28;19940;-76
2022/07/15 04:38:07;;;;;;;;;;;14.80;93.20;;;;;;4981849;28;19936;-76
2022/07/15 04:40:36;;;;;;;;;;;14.80;93.40;;;;;;4973655;28;19980;-77
2022/07/15 04:43:12;;;;;;;;;;;14.80;93.30;;;;;;4977203;28;19930;-77
2022/07/15 04:45:42;;;;;;;;;;;14.80;93.50;;;;;;4989550;28;19929;-76
2022/07/15 04:50:58;;;;;;;;;;;14.80;93.30;;;;;;4987058;28;19932;-76
2022/07/15 04:53:27;;;;;;;;;;;14.80;93.40;;;;;;4986956;28;19926;-75
2022/07/15 04:55:57;;;;;;;;;;;14.90;93.60;;;;;;4993189;28;19932;-76
2022/07/15 04:58:27;;;;;;;;;;;15.00;93.60;;;;;;5006675;28;19926;-76
2022/07/15 05:00:55;;;;;;;;;;;15.10;93.40;;;;;;5003138;28;19930;-77
2022/07/15 05:03:24;;;;;;;;;;;15.20;93.20;;;;;;4971429;28;19926;-77
2022/07/15 05:05:53;;;;;;;;;;;15.20;93.20;;;;;;5003549;28;19929;-75
2022/07/15 05:08:29;;;;;;;;;;;15.30;93.10;;;;;;4972266;28;19937;-76
2022/07/15 05:10:58;;;;;;;;;;;14.40;93.00;;;;;;5004423;28;19937;-77
2022/07/15 05:13:28;;;;;;;;;;;15.30;93.00;;;;;;5004467;28;19926;-75
2022/07/15 05:15:59;;;;;;;;;;;15.10;93.10;;;;;;5004188;28;19926;-77
2022/07/15 05:18:29;;;;;;;;;;;15.40;93.10;;;;;;4980455;28;19926;-76
2022/07/15 05:20:59;;;;;;;;;;;15.50;93.00;;;;;;4970078;28;19940;-76
2022/07/15 05:23:31;;;;;;;;;;;15.50;93.00;;;;;;4969040;28;19926;-77
2022/07/15 05:26:05;;;;;;;;;;;15.60;92.90;;;;;;4986400;28;19930;-76
2022/07/15 05:28:39;;;;;;;;;;;15.60;92.70;;;;;;4996261;28;20376;-76
2022/07/15 05:31:08;;;;;;;;;;;15.70;92.50;;;;;;5002957;28;19936;-78
2022/07/15 05:33:36;;;;;;;;;;;15.80;92.60;;;;;;4976499;28;19926;-76
2022/07/15 05:36:12;;;;;;;;;;;15.80;92.50;;;;;;5002621;28;19940;-78
2022/07/15 05:38:44;;;;;;;;;;;15.90;92.10;;;;;;4986876;28;19932;-77
2022/07/15 05:41:13;;;;;;;;;;;15.90;92.10;;;;;;5004067;28;19930;-77
2022/07/15 05:43:42;;;;;;;;;;;16.00;92.00;;;;;;5003192;28;19932;-76
2022/07/15 05:46:10;;;;;;;;;;;16.00;91.90;;;;;;4986711;28;19930;-77
2022/07/15 05:48:49;;;;;;;;;;;16.00;91.90;;;;;;5003279;28;19930;-77
2022/07/15 05:51:18;;;;;;;;;;;16.10;91.90;;;;;;4986884;28;19945;-77
2022/07/15 05:53:47;;;;;;;;;;;16.20;91.70;;;;;;5004421;28;19932;-77
2022/07/15 05:56:15;;;;;;;;;;;16.20;91.60;;;;;;5005261;28;19936;-76
2022/07/15 05:58:43;;;;;;;;;;;16.30;91.90;;;;;;4980539;28;19930;-76
2022/07/15 06:01:14;;;;;;;;;;;16.30;91.70;;;;;;5001878;28;19941;-76
2022/07/15 06:03:49;;;;;;;;;;;16.40;91.60;;;;;;4640028;28;10000127;-77
2022/07/15 06:06:41;;;;;;;;;;;17.10;91.60;;;;;;4984416;28;19930;-77
2022/07/15 06:09:11;;;;;;;;;;;16.50;91.30;;;;;;4988457;28;19926;-77
2022/07/15 06:11:52;;;;;;;;;;;16.50;91.80;;;;;;4992382;28;19934;-76
2022/07/15 06:14:27;;;;;;;;;;;17.70;91.80;;;;;;5008694;28;19930;-78
2022/07/15 06:17:05;;;;;;;;;;;17.70;91.60;;;;;;4992473;28;19926;-78
2022/07/15 06:19:34;;;;;;;;;;;17.10;91.60;;;;;;5007143;28;19926;-78
2022/07/15 06:22:03;;;;;;;;;;;16.70;91.10;;;;;;4977039;28;19930;-78
2022/07/15 06:24:31;;;;;;;;;;;16.60;90.90;;;;;;4990738;28;19925;-77
2022/07/15 06:27:01;;;;;;;;;;;16.80;91.10;;;;;;4974333;28;20001;-78
2022/07/15 06:29:29;;;;;;;;;;;16.90;90.90;;;;;;4989074;28;19926;-78
2022/07/15 06:31:58;;;;;;;;;;;16.90;90.90;;;;;;4999897;28;20142;-77
2022/07/15 06:34:27;;;;;;;;;;;16.90;90.70;;;;;;5007089;28;19942;-78
2022/07/15 06:36:55;;;;;;;;;;;16.90;90.70;;;;;;4996962;28;19936;-77
2022/07/15 06:39:24;;;;;;;;;;;17.40;90.90;;;;;;4971217;28;19933;-78
2022/07/15 06:41:53;;;;;;;;;;;17.00;90.70;;;;;;5001248;28;20521;-77
2022/07/15 06:44:23;;;;;;;;;;;17.10;90.40;;;;;;4981566;28;20346;-80
2022/07/15 06:46:56;;;;;;;;;;;17.10;90.50;;;;;;5002099;28;19922;-77
2022/07/15 06:49:29;;;;;;;;;;;17.10;90.60;;;;;;5005000;28;19926;-75
2022/07/15 06:51:58;;;;;;;;;;;17.20;90.40;;;;;;4959761;28;19926;-79
2022/07/15 06:54:27;;;;;;;;;;;17.20;90.50;;;;;;5005961;28;19930;-78
2022/07/15 06:56:55;;;;;;;;;;;17.30;90.40;;;;;;4989275;28;19926;-79
2022/07/15 06:59:24;;;;;;;;;;;17.40;90.30;;;;;;5008446;28;19934;-78
2022/07/15 07:01:52;;;;;;;;;;;17.40;90.10;;;;;;5006545;28;19929;-77
2022/07/15 07:04:25;;;;;;;;;;;17.90;90.10;;;;;;4971846;28;19925;-78
2022/07/15 07:06:54;;;;;;;;;;;17.50;90.10;;;;;;4977834;28;20780;-79
2022/07/15 07:09:23;;;;;;;;;;;17.50;90.00;;;;;;4972974;28;19930;-77
2022/07/15 07:11:54;;;;;;;;;;;17.60;89.80;;;;;;4973235;28;19925;-79
2022/07/15 07:14:22;;;;;;;;;;;17.70;89.60;;;;;;5006722;28;19933;-76
2022/07/15 07:16:51;;;;;;;;;;;17.70;89.30;;;;;;4978792;28;19926;-79
2022/07/15 07:19:20;;;;;;;;;;;17.70;89.30;;;;;;4990898;28;19929;-78
2022/07/15 07:21:49;;;;;;;;;;;17.80;89.50;;;;;;4991453;28;20279;-79
2022/07/15 07:24:17;;;;;;;;;;;17.80;89.00;;;;;;4967753;28;19932;-78
2022/07/15 07:26:46;;;;;;;;;;;17.80;88.70;;;;;;4974338;28;19940;-78
2022/07/15 07:29:22;;;;;;;;;;;17.90;89.10;;;;;;5007670;28;19934;-78
2022/07/15 07:31:52;;;;;;;;;;;18.00;88.80;;;;;;5005648;28;19930;-78
2022/07/15 07:34:20;;;;;;;;;;;18.00;88.40;;;;;;4995011;28;19926;-78
2022/07/15 07:36:51;;;;;;;;;;;18.00;88.20;;;;;;5011769;28;19925;-78
2022/07/15 07:39:19;;;;;;;;;;;18.10;87.90;;;;;;4989133;28;19937;-78
2022/07/15 07:41:52;;;;;;;;;;;18.20;87.50;;;;;;4990704;28;19926;-78
2022/07/15 07:44:21;;;;;;;;;;;18.20;87.50;;;;;;4974193;28;19932;-79
2022/07/15 07:46:49;;;;;;;;;;;18.20;87.00;;;;;;4972735;28;19929;-79
2022/07/15 07:49:18;;;;;;;;;;;18.30;87.40;;;;;;4986961;28;19930;-79
2022/07/15 07:52:03;;;;;;;;;;;18.40;87.80;;;;;;5002072;28;20521;-78
2022/07/15 07:54:32;;;;;;;;;;;18.40;86.50;;;;;;4983309;28;19936;-78
2022/07/15 07:57:01;;;;;;;;;;;18.50;86.70;;;;;;4968453;28;19937;-78
2022/07/15 07:59:30;;;;;;;;;;;18.40;86.50;;;;;;5006827;28;20711;-79
2022/07/15 08:01:58;;;;;;;;;;;18.60;86.70;;;;;;4974567;28;19926;-79
2022/07/15 08:04:28;;;;;;;;;;;18.70;85.90;;;;;;4984847;28;19926;-78
2022/07/15 08:06:57;;;;;;;;;;;18.70;86.10;;;;;;4967299;28;20422;-80
2022/07/15 08:09:25;;;;;;;;;;;18.80;85.70;;;;;;4988004;28;19930;-79
2022/07/15 08:11:53;;;;;;;;;;;18.90;84.90;;;;;;4983898;28;19926;-79
2022/07/15 08:14:21;;;;;;;;;;;19.00;84.80;;;;;;4972687;28;19925;-78
2022/07/15 08:16:50;;;;;;;;;;;19.10;84.50;;;;;;4972756;28;19930;-79
2022/07/15 08:19:19;;;;;;;;;;;19.10;85.00;;;;;;4988846;28;19932;-79
2022/07/15 08:21:48;;;;;;;;;;;19.30;84.30;;;;;;4980433;28;19926;-79
2022/07/15 08:24:17;;;;;;;;;;;19.40;84.20;;;;;;5008771;28;19925;-79
2022/07/15 08:26:45;;;;;;;;;;;19.40;83.60;;;;;;4975076;28;19940;-80
2022/07/15 08:29:13;;;;;;;;;;;19.70;83.20;;;;;;4987930;28;20334;-79
2022/07/15 08:31:42;;;;;;;;;;;19.60;82.10;;;;;;4989565;28;19934;-78
2022/07/15 08:34:10;;;;;;;;;;;19.60;82.40;;;;;;5007485;28;19956;-78
2022/07/15 08:36:39;;;;;;;;;;;19.60;81.50;;;;;;4989523;28;19936;-79
2022/07/15 08:39:09;;;;;;;;;;;19.60;81.30;;;;;;5009938;28;19933;-79
2022/07/15 08:41:38;;;;;;;;;;;19.70;80.80;;;;;;4989550;28;20002;-78
2022/07/15 08:44:06;;;;;;;;;;;19.80;81.20;;;;;;5006762;28;19934;-79
2022/07/15 08:46:35;;;;;;;;;;;19.80;80.80;;;;;;5005937;28;19928;-79
2022/07/15 08:49:08;;;;;;;;;;;19.80;80.70;;;;;;5007118;28;19933;-79
2022/07/15 08:51:41;;;;;;;;;;;19.90;80.40;;;;;;5001829;28;19926;-79
2022/07/15 08:54:10;;;;;;;;;;;19.90;80.70;;;;;;4995003;28;19936;-78
2022/07/15 08:56:39;;;;;;;;;;;20.10;80.40;;;;;;5006009;28;19936;-80
2022/07/15 08:59:08;;;;;;;;;;;19.10;78.90;;;;;;5002888;28;19930;-78
2022/07/15 09:01:41;;;;;;;;;;;20.00;78.20;;;;;;4971502;28;20426;-79
2022/07/15 09:04:12;;;;;;;;;;;20.50;79.10;;;;;;4975146;28;19926;-78
2022/07/15 09:06:42;;;;;;;;;;;20.20;78.70;;;;;;4971609;28;20297;-78
2022/07/15 09:09:26;;;;;;;;;;;20.20;78.90;;;;;;4973905;28;19937;-79
2022/07/15 09:11:57;;;;;;;;;;;20.30;78.50;;;;;;4987082;28;19934;-79
2022/07/15 09:14:46;;;;;;;;;;;21.00;77.70;;;;;;4974281;28;19930;-78
2022/07/15 09:17:15;;;;;;;;;;;20.50;77.00;;;;;;4953961;28;20381;-78
2022/07/15 09:20:04;;;;;;;;;;;20.50;77.20;;;;;;5004046;28;20525;-79
2022/07/15 09:22:46;;;;;;;;;;;20.60;76.40;;;;;;5002681;28;19968;-79
2022/07/15 09:25:15;;;;;;;;;;;20.60;77.10;;;;;;5004110;28;20797;-79
2022/07/15 09:27:45;;;;;;;;;;;20.60;75.20;;;;;;4967223;28;19926;-79
2022/07/15 09:36:02;;;;;;;;;;;20.80;74.50;;;;;;5004558;28;19926;-79
2022/07/15 09:38:32;;;;;;;;;;;20.90;74.70;;;;;;4982622;28;20270;-78
2022/07/15 09:41:01;;;;;;;;;;;21.00;73.00;;;;;;5001288;28;19926;-78
2022/07/15 09:43:29;;;;;;;;;;;21.10;73.70;;;;;;4986286;28;19930;-78
2022/07/15 09:45:59;;;;;;;;;;;21.20;72.70;;;;;;5006235;28;19930;-79
2022/07/15 09:48:31;;;;;;;;;;;21.30;73.80;;;;;;4989944;28;19941;-78
2022/07/15 09:51:00;;;;;;;;;;;21.30;73.40;;;;;;4999535;28;19933;-80
2022/07/15 09:53:30;;;;;;;;;;;21.50;72.80;;;;;;4991453;28;20303;-78
2022/07/15 09:56:00;;;;;;;;;;;21.40;72.40;;;;;;5008184;28;19925;-79
2022/07/15 09:58:29;;;;;;;;;;;21.50;72.00;;;;;;4975260;28;19933;-79
2022/07/15 10:00:57;;;;;;;;;;;21.60;71.60;;;;;;5009453;28;19940;-79
2022/07/15 10:03:26;;;;;;;;;;;21.60;71.70;;;;;;5002659;28;19940;-79
2022/07/15 10:05:59;;;;;;;;;;;21.60;71.40;;;;;;4990118;28;20323;-79
2022/07/15 10:08:29;;;;;;;;;;;21.70;71.50;;;;;;5008393;28;19926;-79
2022/07/15 10:10:58;;;;;;;;;;;21.80;71.20;;;;;;4999195;28;19933;-79
2022/07/15 10:13:45;;;;;;;;;;;21.90;71.80;;;;;;4997534;28;19934;-79
2022/07/15 10:16:33;;;;;;;;;;;22.10;70.70;;;;;;4987560;28;19925;-79
2022/07/15 10:19:41;;;;;;;;;;;22.20;70.30;;;;;;4984563;28;19934;-79
2022/07/15 10:22:35;;;;;;;;;;;22.30;68.60;;;;;;4945216;29;19934;-78
2022/07/15 10:25:16;;;;;;;;;;;22.40;68.90;;;;;;4929917;29;20019;-79
2022/07/15 10:27:51;;;;;;;;;;;22.40;69.20;;;;;;4990558;28;19926;-79
2022/07/15 10:30:21;;;;;;;;;;;22.40;68.10;;;;;;5005271;28;19933;-79
2022/07/15 10:33:02;;;;;;;;;;;22.40;68.10;;;;;;5006403;28;20651;-79
2022/07/15 10:35:35;;;;;;;;;;;22.60;67.10;;;;;;4989870;28;19914;-79
2022/07/15 10:38:22;;;;;;;;;;;22.60;67.50;;;;;;4989353;28;19926;-78
2022/07/15 10:41:01;;;;;;;;;;;22.80;67.40;;;;;;4990177;28;20404;-79
2022/07/15 10:43:49;;;;;;;;;;;22.90;67.00;;;;;;5006240;28;19930;-78
2022/07/15 10:46:21;;;;;;;;;;;23.20;66.30;;;;;;5002156;28;19944;-78
2022/07/15 10:49:12;;;;;;;;;;;23.30;65.50;;;;;;4991326;28;19941;-79
2022/07/15 10:51:41;;;;;;;;;;;23.30;65.60;;;;;;5005392;28;20438;-76
2022/07/15 10:54:10;;;;;;;;;;;23.40;64.70;;;;;;5004256;28;19937;-79
2022/07/15 10:56:44;;;;;;;;;;;23.50;64.90;;;;;;5003981;28;20271;-79
2022/07/15 10:59:23;;;;;;;;;;;22.90;64.70;;;;;;4987648;28;19925;-79
2022/07/15 11:02:00;;;;;;;;;;;23.70;64.90;;;;;;4987299;28;19926;-78
2022/07/15 11:04:29;;;;;;;;;;;23.80;64.30;;;;;;5002256;28;19926;-76
2022/07/15 11:07:10;;;;;;;;;;;23.90;64.30;;;;;;4990626;28;19932;-81
2022/07/15 11:09:58;;;;;;;;;;;24.10;63.70;;;;;;4988952;28;19925;-79
2022/07/15 11:12:34;;;;;;;;;;;24.20;62.10;;;;;;5005391;28;19934;-79
2022/07/15 11:15:13;;;;;;;;;;;24.40;63.60;;;;;;5001735;28;19934;-80
2022/07/15 11:17:43;;;;;;;;;;;24.50;62.70;;;;;;4969719;28;19934;-77
2022/07/15 11:20:14;;;;;;;;;;;24.60;62.30;;;;;;5003827;28;19941;-79
2022/07/15 11:22:44;;;;;;;;;;;23.10;63.00;;;;;;4988756;28;19934;-78
2022/07/15 11:25:30;;;;;;;;;;;24.70;61.10;;;;;;4983080;28;19936;-77
2022/07/15 11:28:01;;;;;;;;;;;24.80;62.10;;;;;;5007008;28;19930;-78
2022/07/15 11:30:33;;;;;;;;;;;24.90;61.50;;;;;;4983298;28;19940;-78
2022/07/15 11:33:03;;;;;;;;;;;25.00;60.90;;;;;;5006660;28;19936;-79
2022/07/15 11:35:42;;;;;;;;;;;23.80;60.60;;;;;;5004892;28;19932;-80
2022/07/15 11:38:11;;;;;;;;;;;26.10;60.80;;;;;;5000322;28;20980;-79
2022/07/15 11:46:50;;;;;;;;;;;25.20;60.10;;;;;;4968655;28;20303;-80
2022/07/15 11:49:25;;;;;;;;;;;26.30;60.70;;;;;;4955625;28;19941;-80
2022/07/15 11:51:55;;;;;;;;;;;26.00;59.60;;;;;;5001627;28;19926;-79
2022/07/15 11:54:48;;;;;;;;;;;26.00;58.60;;;;;;5003316;28;19930;-79
2022/07/15 11:57:25;;;;;;;;;;;26.00;59.00;;;;;;4988080;28;19933;-79
2022/07/15 12:00:18;;;;;;;;;;;25.90;58.40;;;;;;5001223;28;19944;-78
2022/07/15 12:03:18;;;;;;;;;;;27.40;59.80;;;;;;4982221;28;19934;-80
2022/07/15 12:06:00;;;;;;;;;;;25.60;58.50;;;;;;4989907;28;19933;-77
2022/07/15 12:08:40;;;;;;;;;;;25.60;58.60;;;;;;4991967;28;19927;-78
2022/07/15 12:11:09;;;;;;;;;;;25.60;59.40;;;;;;4984022;28;19925;-78
2022/07/15 12:13:47;;;;;;;;;;;25.70;58.30;;;;;;5006235;28;19930;-78
2022/07/15 12:16:19;;;;;;;;;;;25.70;58.60;;;;;;5002295;28;19936;-79
2022/07/15 12:18:49;;;;;;;;;;;26.40;59.10;;;;;;4984958;28;19933;-78
2022/07/15 12:21:38;;;;;;;;;;;26.00;58.70;;;;;;4992548;28;20411;-78
2022/07/15 12:24:22;;;;;;;;;;;26.10;57.70;;;;;;4998788;28;19937;-80
2022/07/15 12:26:50;;;;;;;;;;;26.30;58.10;;;;;;5000665;28;19941;-79
2022/07/15 12:29:26;;;;;;;;;;;26.50;58.70;;;;;;4997144;28;19926;-80
2022/07/15 12:32:16;;;;;;;;;;;26.80;58.40;;;;;;4998735;28;20490;-79
2022/07/15 12:34:47;;;;;;;;;;;26.90;57.00;;;;;;4986182;28;20357;-79
2022/07/15 12:37:23;;;;;;;;;;;26.10;56.30;;;;;;5001442;28;19926;-79
2022/07/15 12:39:55;;;;;;;;;;;27.10;57.20;;;;;;5001009;28;19933;-79
2022/07/15 12:42:25;;;;;;;;;;;27.00;56.80;;;;;;5000834;28;19936;-80
2022/07/15 12:45:06;;;;;;;;;;;27.10;56.20;;;;;;4985014;28;19932;-80
2022/07/15 12:48:20;;;;;;;;;;;27.10;56.40;;;;;;4971856;28;19929;-79
2022/07/15 12:50:51;;;;;;;;;;;27.20;56.20;;;;;;4946694;29;19931;-79
2022/07/15 12:53:24;;;;;;;;;;;27.30;55.70;;;;;;4956842;28;19937;-79
2022/07/15 12:55:57;;;;;;;;;;;27.40;55.70;;;;;;4949949;28;19944;-79
2022/07/15 12:58:27;;;;;;;;;;;27.60;56.20;;;;;;4982749;28;20315;-79
2022/07/15 13:01:07;;;;;;;;;;;27.60;55.60;;;;;;5001501;28;19930;-78
2022/07/15 13:03:36;;;;;;;;;;;26.90;55.40;;;;;;4998739;28;19937;-79
2022/07/15 13:06:04;;;;;;;;;;;27.80;56.40;;;;;;5002546;28;19926;-79
2022/07/15 13:08:41;;;;;;;;;;;27.70;56.10;;;;;;5002904;28;19933;-79
2022/07/15 13:11:24;;;;;;;;;;;27.70;56.40;;;;;;5003283;28;19934;-79
2022/07/15 13:13:52;;;;;;;;;;;27.80;55.80;;;;;;5003653;28;19926;-80
2022/07/15 13:16:20;;;;;;;;;;;28.70;56.90;;;;;;4978482;28;19929;-79
2022/07/15 13:18:49;;;;;;;;;;;27.80;56.10;;;;;;4998793;28;19927;-79
2022/07/15 13:21:16;;;;;;;;;;;28.00;56.10;;;;;;5004394;28;19929;-80
2022/07/15 13:23:54;;;;;;;;;;;28.10;56.30;;;;;;4986551;28;19932;-78
2022/07/15 13:26:22;;;;;;;;;;;28.40;56.20;;;;;;5004291;28;19933;-81
2022/07/15 13:28:50;;;;;;;;;;;28.20;56.30;;;;;;4986601;28;20028;-78
2022/07/15 13:31:18;;;;;;;;;;;28.30;56.20;;;;;;5003170;28;19933;-78
2022/07/15 13:33:48;;;;;;;;;;;28.50;55.80;;;;;;5003394;28;19942;-80
2022/07/15 13:36:22;;;;;;;;;;;28.60;55.30;;;;;;4987042;28;20351;-81
2022/07/15 13:38:50;;;;;;;;;;;28.70;55.00;;;;;;4972357;28;19941;-80
2022/07/15 13:41:21;;;;;;;;;;;28.90;54.70;;;;;;5004829;28;20717;-80
2022/07/15 13:43:50;;;;;;;;;;;28.80;54.10;;;;;;4989471;28;19933;-78
2022/07/15 13:46:19;;;;;;;;;;;28.70;54.40;;;;;;5006110;28;19936;-81
2022/07/15 13:48:48;;;;;;;;;;;28.80;54.30;;;;;;5000577;28;19926;-79
2022/07/15 13:51:25;;;;;;;;;;;28.90;54.00;;;;;;4989011;28;19925;-80
2022/07/15 13:53:55;;;;;;;;;;;29.10;54.10;;;;;;4954039;28;19926;-81
2022/07/15 13:56:27;;;;;;;;;;;29.40;54.00;;;;;;4999979;28;19928;-80
2022/07/15 13:58:58;;;;;;;;;;;28.50;53.40;;;;;;5001788;28;19952;-80
2022/07/15 14:01:29;;;;;;;;;;;29.90;53.60;;;;;;5005067;28;19926;-80
2022/07/15 14:03:57;;;;;;;;;;;30.00;53.50;;;;;;4985733;28;19933;-80
2022/07/15 14:06:33;;;;;;;;;;;30.20;53.60;;;;;;4970316;28;19937;-80
2022/07/15 14:09:01;;;;;;;;;;;30.40;52.70;;;;;;4998718;28;19926;-81
2022/07/15 14:11:30;;;;;;;;;;;30.50;53.10;;;;;;5000361;28;19934;-80
2022/07/15 14:13:58;;;;;;;;;;;30.70;52.80;;;;;;5004198;28;19926;-80
2022/07/15 14:16:26;;;;;;;;;;;29.40;52.00;;;;;;4994089;28;19930;-80
2022/07/15 14:18:54;;;;;;;;;;;30.20;53.00;;;;;;5001222;28;19926;-80
2022/07/15 14:21:23;;;;;;;;;;;29.90;53.20;;;;;;4986583;28;19925;-81
2022/07/15 14:23:51;;;;;;;;;;;29.60;53.20;;;;;;4980934;28;19930;-79
2022/07/15 14:26:19;;;;;;;;;;;29.50;53.60;;;;;;4995617;28;19934;-79
2022/07/15 14:28:50;;;;;;;;;;;29.60;53.70;;;;;;5001141;28;19926;-79
2022/07/15 14:31:27;;;;;;;;;;;29.90;53.30;;;;;;4985511;28;19934;-79
2022/07/15 14:33:56;;;;;;;;;;;31.70;54.10;;;;;;4987875;28;19937;-78
2022/07/15 14:36:24;;;;;;;;;;;30.50;52.80;;;;;;5002922;28;19925;-80
2022/07/15 14:38:52;;;;;;;;;;;30.40;52.70;;;;;;4986269;28;19934;-79
2022/07/15 14:41:27;;;;;;;;;;;30.20;53.70;;;;;;4987974;28;19936;-80
2022/07/15 14:43:55;;;;;;;;;;;29.80;53.20;;;;;;5002632;28;19926;-76
2022/07/15 14:46:24;;;;;;;;;;;29.60;53.30;;;;;;4969344;28;19929;-76
2022/07/15 14:48:55;;;;;;;;;;;29.60;53.50;;;;;;4984855;28;20102;-77
2022/07/15 14:51:27;;;;;;;;;;;29.90;53.30;;;;;;4985597;28;19937;-77
2022/07/15 14:54:06;;;;;;;;;;;30.00;53.00;;;;;;5001686;28;19925;-77
2022/07/15 14:56:35;;;;;;;;;;;30.30;52.30;;;;;;5003660;28;19934;-76
2022/07/15 14:59:03;;;;;;;;;;;32.10;53.60;;;;;;4969516;28;19925;-76